Time;durP1;ratioP1;P1;durP2;ratioP2;P2;SDS_P1;SDS_P2;PMS_P1;PMS_P2;Temp;Humidity;BMP_temperature;BMP_pressure;BME280_temperature;BME280_humidity;BME280_pressure;Samples;Min_cycle;Max_cycle;Signal;HPM_P1;HPM_P2
2024/03/01 00:02:23;;;;;;;15.63;6.25;;;;;;;-140.81;100.00;62400.31;5025155;28;20719;-48
2024/03/01 00:04:48;;;;;;;14.05;6.00;;;;;;;-140.81;100.00;62400.31;5027661;28;20034;-48
2024/03/01 00:07:15;;;;;;;12.55;6.13;;;;;;;-140.81;100.00;62400.31;5038929;28;20741;-46
2024/03/01 00:09:40;;;;;;;16.33;6.30;;;;;;;-140.81;100.00;62400.31;5026607;28;20040;-48
2024/03/01 00:12:07;;;;;;;12.82;5.57;;;;;;;-140.81;100.00;62400.31;5059517;28;20128;-45
2024/03/01 00:14:33;;;;;;;17.15;6.20;;;;;;;-140.81;100.00;62400.31;5060271;28;20069;-50
2024/03/01 00:16:58;;;;;;;18.27;6.30;;;;;;;-140.81;100.00;62400.31;5028481;28;20517;-49
2024/03/01 00:19:24;;;;;;;13.63;6.35;;;;;;;-140.81;100.00;62400.31;5028065;28;20748;-46
2024/03/01 00:21:50;;;;;;;16.95;6.70;;;;;;;-140.81;100.00;62400.31;5026166;28;20041;-49
2024/03/01 00:24:16;;;;;;;15.60;7.80;;;;;;;-140.81;100.00;62400.31;5026868;28;20120;-49
2024/03/01 00:26:46;;;;;;;12.18;6.13;;;;;;;-140.81;100.00;62400.31;5010460;28;20044;-49
2024/03/01 00:29:12;;;;;;;12.80;6.10;;;;;;;-140.81;100.00;62400.31;5027978;28;20029;-50
2024/03/01 00:31:37;;;;;;;12.80;5.68;;;;;;;-140.81;100.00;62400.31;5027718;28;20052;-46
2024/03/01 00:34:03;;;;;;;13.43;7.45;;;;;;;-140.81;100.00;62400.31;5028167;28;20045;-46
2024/03/01 00:36:29;;;;;;;13.98;5.80;;;;;;;-140.81;100.00;62400.31;5026717;28;20456;-48
2024/03/01 00:38:55;;;;;;;12.45;6.13;;;;;;;-140.81;100.00;62400.31;5028234;28;20033;-51
2024/03/01 00:41:21;;;;;;;16.48;7.10;;;;;;;-140.81;100.00;62400.31;5027114;28;20061;-47
2024/03/01 00:43:48;;;;;;;17.88;6.22;;;;;;;-140.81;100.00;62400.31;5011875;28;20120;-49
2024/03/01 00:46:14;;;;;;;12.77;5.63;;;;;;;-140.81;100.00;62400.31;5006617;28;20088;-48
2024/03/01 00:48:41;;;;;;;13.35;6.22;;;;;;;-140.81;100.00;62400.31;5006614;28;20038;-47
2024/03/01 00:51:07;;;;;;;13.95;6.13;;;;;;;-140.81;100.00;62400.31;5018008;28;20041;-45
2024/03/01 00:53:33;;;;;;;15.63;6.45;;;;;;;-140.81;100.00;62400.31;5027475;28;20056;-50
2024/03/01 00:55:59;;;;;;;19.25;6.97;;;;;;;-140.81;100.00;62400.31;5027520;28;20049;-49
2024/03/01 00:58:25;;;;;;;16.45;7.50;;;;;;;-140.81;100.00;62400.31;5027323;28;20081;-47
2024/03/01 01:00:51;;;;;;;13.93;6.88;;;;;;;-140.81;100.00;62400.31;5008653;28;20037;-48
2024/03/01 01:03:17;;;;;;;14.55;6.80;;;;;;;-140.81;100.00;62400.31;5027214;28;20578;-46
2024/03/01 01:05:42;;;;;;;21.85;6.80;;;;;;;-140.81;100.00;62400.31;5026526;28;20037;-48
2024/03/01 01:08:09;;;;;;;12.60;5.65;;;;;;;-140.81;100.00;62400.31;5026356;28;20099;-49
2024/03/01 01:10:35;;;;;;;12.77;6.68;;;;;;;-140.81;100.00;62400.31;5025872;28;20535;-53
2024/03/01 01:13:01;;;;;;;15.23;6.25;;;;;;;-140.81;100.00;62400.31;5056600;28;20065;-48
2024/03/01 01:15:27;;;;;;;19.80;6.88;;;;;;;-140.81;100.00;62400.31;5057078;28;20127;-46
2024/03/01 01:17:53;;;;;;;13.68;6.95;;;;;;;-140.81;100.00;62400.31;5026043;28;20084;-49
2024/03/01 01:20:19;;;;;;;14.80;6.15;;;;;;;-140.81;100.00;62400.31;5058706;28;20052;-50
2024/03/01 01:22:45;;;;;;;16.90;6.13;;;;;;;-140.81;100.00;62400.31;5026074;28;20131;-51
2024/03/01 01:25:11;;;;;;;19.35;6.65;;;;;;;-140.81;100.00;62400.31;5026957;28;20071;-51
2024/03/01 01:27:37;;;;;;;15.52;6.53;;;;;;;-140.81;100.00;62400.31;5026694;28;20106;-46
2024/03/01 01:30:03;;;;;;;14.27;6.43;;;;;;;-140.81;100.00;62400.31;5026844;28;20064;-50
2024/03/01 01:32:30;;;;;;;16.88;7.13;;;;;;;-140.81;100.00;62400.31;5025940;28;20068;-50
2024/03/01 01:34:56;;;;;;;16.05;6.93;;;;;;;-140.81;100.00;62400.31;5026579;28;20045;-47
2024/03/01 01:37:21;;;;;;;15.70;7.00;;;;;;;-140.81;100.00;62400.31;5026241;28;20037;-47
2024/03/01 01:39:47;;;;;;;13.02;6.20;;;;;;;-140.81;100.00;62400.31;5041562;28;20050;-47
2024/03/01 01:42:13;;;;;;;18.85;8.32;;;;;;;-140.81;100.00;62400.31;5024945;28;20537;-45
2024/03/01 01:44:40;;;;;;;11.27;4.97;;;;;;;-140.81;100.00;62400.31;5005593;28;20049;-49
2024/03/01 01:47:06;;;;;;;14.77;5.68;;;;;;;-140.81;100.00;62400.31;5006939;28;20041;-45
2024/03/01 01:49:32;;;;;;;12.25;6.25;;;;;;;-140.81;100.00;62400.31;5006577;28;20041;-46
2024/03/01 01:51:58;;;;;;;22.55;7.40;;;;;;;-140.81;100.00;62400.31;4994343;28;20539;-48
2024/03/01 01:54:24;;;;;;;18.55;7.68;;;;;;;-140.81;100.00;62400.31;5041275;28;20057;-48
2024/03/01 01:56:50;;;;;;;15.60;7.03;;;;;;;-140.81;100.00;62400.31;5026623;28;20131;-48
2024/03/01 01:59:17;;;;;;;16.02;6.22;;;;;;;-140.81;100.00;62400.31;5026560;28;20041;-51
2024/03/01 02:01:44;;;;;;;20.60;7.30;;;;;;;-140.81;100.00;62400.31;5041074;28;20073;-47
2024/03/01 02:04:10;;;;;;;11.43;6.57;;;;;;;-140.81;100.00;62400.31;5024915;28;20425;-48
2024/03/01 02:06:36;;;;;;;15.90;6.55;;;;;;;-140.81;100.00;62400.31;5026267;28;20048;-48
2024/03/01 02:09:12;;;;;;;18.17;6.43;;;;;;;-140.81;100.00;62400.31;5041822;28;20036;-51
2024/03/01 02:11:40;;;;;;;17.73;7.32;;;;;;;-140.81;100.00;62400.31;5022961;28;20045;-47
2024/03/01 02:14:09;;;;;;;16.55;7.35;;;;;;;-140.81;100.00;62400.31;5036462;28;20049;-47
2024/03/01 02:16:35;;;;;;;18.75;7.68;;;;;;;-140.81;100.00;62400.31;5026556;28;20037;-50
2024/03/01 02:19:04;;;;;;;13.98;6.65;;;;;;;-140.81;100.00;62400.31;5007888;28;20521;-49
2024/03/01 02:21:35;;;;;;;17.15;7.45;;;;;;;-140.81;100.00;62400.31;5008507;28;20310;-47
2024/03/01 02:24:01;;;;;;;15.90;7.32;;;;;;;-140.81;100.00;62400.31;5024165;28;20425;-50
2024/03/01 02:26:27;;;;;;;16.55;7.05;;;;;;;-140.81;100.00;62400.31;5057974;28;20420;-47
2024/03/01 02:28:53;;;;;;;16.25;7.97;;;;;;;-140.81;100.00;62400.31;5025914;28;20087;-51
2024/03/01 02:31:21;;;;;;;24.65;8.02;;;;;;;-140.81;100.00;62400.31;5057535;28;20057;-52
2024/03/01 02:33:47;;;;;;;16.35;7.47;;;;;;;-140.81;100.00;62400.31;5023464;28;20045;-48
2024/03/01 02:36:13;;;;;;;18.92;8.43;;;;;;;-140.81;100.00;62400.31;5026428;28;20034;-51
2024/03/01 02:38:39;;;;;;;14.00;7.25;;;;;;;-140.81;100.00;62400.31;5024856;28;20053;-48
2024/03/01 02:41:07;;;;;;;15.63;6.47;;;;;;;-140.81;100.00;62400.31;5024577;28;20520;-48
2024/03/01 02:43:33;;;;;;;13.98;7.05;;;;;;;-140.81;100.00;62400.31;5022221;28;20111;-47
2024/03/01 02:45:59;;;;;;;22.10;7.45;;;;;;;-140.81;100.00;62400.31;5025647;28;20053;-49
2024/03/01 02:48:25;;;;;;;23.35;8.30;;;;;;;-140.81;100.00;62400.31;5041442;28;20576;-51
2024/03/01 02:50:51;;;;;;;19.13;8.70;;;;;;;-140.81;100.00;62400.31;5008519;28;20072;-47
2024/03/01 02:53:17;;;;;;;15.95;7.47;;;;;;;-140.81;100.00;62400.31;5024119;28;20042;-47
2024/03/01 02:55:43;;;;;;;19.20;8.20;;;;;;;-140.81;100.00;62400.31;5024210;28;20103;-47
2024/03/01 02:58:09;;;;;;;18.73;7.38;;;;;;;-140.81;100.00;62400.31;5025887;28;20103;-47
2024/03/01 03:00:36;;;;;;;14.90;8.27;;;;;;;-140.81;100.00;62400.31;5041215;28;20053;-48
2024/03/01 03:03:02;;;;;;;15.48;7.63;;;;;;;-140.81;100.00;62400.31;5025572;28;20041;-51
2024/03/01 03:05:28;;;;;;;18.50;8.20;;;;;;;-140.81;100.00;62400.31;5007211;28;20442;-49
2024/03/01 03:07:54;;;;;;;16.80;8.38;;;;;;;-140.81;100.00;62400.31;5024776;28;20851;-48
2024/03/01 03:10:20;;;;;;;21.88;8.13;;;;;;;-140.81;100.00;62400.31;5040711;28;20033;-49
2024/03/01 03:12:47;;;;;;;20.10;9.30;;;;;;;-140.81;100.00;62400.31;5007741;28;20131;-48
2024/03/01 03:15:13;;;;;;;18.95;8.02;;;;;;;-140.81;100.00;62400.31;5032092;28;20050;-49
2024/03/01 03:17:39;;;;;;;15.82;8.13;;;;;;;-140.81;100.00;62400.31;5005772;28;20072;-47
2024/03/01 03:20:14;;;;;;;17.95;7.75;;;;;;;-140.81;100.00;62400.31;5005462;28;20127;-46
2024/03/01 03:22:44;;;;;;;17.08;8.88;;;;;;;-140.81;100.00;62400.31;5020744;28;20045;-46
2024/03/01 03:25:14;;;;;;;17.30;7.93;;;;;;;-140.81;100.00;62400.31;5023021;28;20036;-45
2024/03/01 03:27:41;;;;;;;20.80;8.85;;;;;;;-140.81;100.00;62400.31;5054333;28;20041;-46
2024/03/01 03:30:08;;;;;;;16.30;8.70;;;;;;;-140.81;100.00;62400.31;5023648;28;20041;-47
2024/03/01 03:32:35;;;;;;;20.50;8.60;;;;;;;-140.81;100.00;62400.31;5027660;28;20483;-49
2024/03/01 03:35:01;;;;;;;13.95;6.80;;;;;;;-140.81;100.00;62400.31;5026814;28;20041;-48
2024/03/01 03:37:28;;;;;;;18.00;7.60;;;;;;;-140.81;100.00;62400.31;5040977;28;20041;-51
2024/03/01 03:39:53;;;;;;;13.10;7.00;;;;;;;-140.81;100.00;62400.31;5024398;28;20053;-47
2024/03/01 03:42:19;;;;;;;17.08;7.15;;;;;;;-140.81;100.00;62400.31;5026968;28;20037;-47
2024/03/01 03:44:45;;;;;;;16.02;6.80;;;;;;;-140.81;100.00;62400.31;5009648;28;20038;-45
2024/03/01 03:47:11;;;;;;;16.45;7.57;;;;;;;-140.81;100.00;62400.31;5007770;28;20037;-50
2024/03/01 03:49:37;;;;;;;14.23;6.82;;;;;;;-140.81;100.00;62400.31;5026391;28;20547;-47
2024/03/01 03:52:03;;;;;;;15.07;7.25;;;;;;;-140.81;100.00;62400.31;5028406;28;20037;-49
2024/03/01 03:54:31;;;;;;;18.85;8.15;;;;;;;-140.81;100.00;62400.31;5028867;28;20037;-46
2024/03/01 03:56:57;;;;;;;18.98;8.98;;;;;;;-140.81;100.00;62400.31;5027144;28;20539;-47
2024/03/01 03:59:23;;;;;;;18.98;8.93;;;;;;;-140.81;100.00;62400.31;5027337;28;20144;-46
2024/03/01 04:01:49;;;;;;;19.50;8.32;;;;;;;-140.81;100.00;62400.31;5059690;28;20564;-49
2024/03/01 04:04:16;;;;;;;21.50;9.07;;;;;;;-140.81;100.00;62400.31;5028605;28;20041;-47
2024/03/01 04:06:42;;;;;;;18.35;8.00;;;;;;;-140.81;100.00;62400.31;5027588;28;20559;-48
2024/03/01 04:09:12;;;;;;;24.38;9.80;;;;;;;-140.81;100.00;62400.31;5027447;28;20040;-46
2024/03/01 04:11:40;;;;;;;20.05;9.20;;;;;;;-140.81;100.00;62400.31;5028127;28;20041;-47
2024/03/01 04:14:09;;;;;;;22.63;8.80;;;;;;;-140.81;100.00;62400.31;5026885;28;20080;-45
2024/03/01 04:16:35;;;;;;;18.20;8.02;;;;;;;-140.81;100.00;62400.31;5027668;28;20064;-46
2024/03/01 04:19:01;;;;;;;19.27;8.15;;;;;;;-140.81;100.00;62400.31;5027422;28;20052;-47
2024/03/01 04:21:28;;;;;;;16.77;7.68;;;;;;;-140.81;100.00;62400.31;5059773;28;20421;-48
2024/03/01 04:23:55;;;;;;;19.88;7.78;;;;;;;-140.81;100.00;62400.31;5025371;28;20336;-49
2024/03/01 04:26:20;;;;;;;15.95;6.72;;;;;;;-140.81;100.00;62400.31;5026357;28;20178;-48
2024/03/01 04:28:46;;;;;;;15.70;7.05;;;;;;;-140.81;100.00;62400.31;5008345;28;20041;-50
2024/03/01 04:31:14;;;;;;;19.15;7.68;;;;;;;-140.81;100.00;62400.31;5027864;28;20033;-46
2024/03/01 04:33:42;;;;;;;;;;;;;;;-140.81;100.00;62400.31;5026576;28;20053;-48
2024/03/01 04:36:08;;;;;;;16.85;7.18;;;;;;;-140.81;100.00;62400.31;5027360;28;20016;-46
2024/03/01 04:38:34;;;;;;;18.15;7.35;;;;;;;-140.81;100.00;62400.31;5027502;28;20042;-45
2024/03/01 04:41:00;;;;;;;15.90;7.65;;;;;;;-140.81;100.00;62400.31;5027503;28;20045;-47
2024/03/01 04:43:26;;;;;;;15.50;6.78;;;;;;;-140.81;100.00;62400.31;5024193;28;20531;-44
2024/03/01 04:45:53;;;;;;;16.33;7.50;;;;;;;-140.81;100.00;62400.31;5009063;28;20099;-45
2024/03/01 04:48:19;;;;;;;16.70;7.88;;;;;;;-140.81;100.00;62400.31;5027551;28;20033;-46
2024/03/01 04:50:45;;;;;;;14.45;6.65;;;;;;;-140.81;100.00;62400.31;5042206;28;20493;-47
2024/03/01 04:53:11;;;;;;;16.08;7.53;;;;;;;-140.81;100.00;62400.31;5027340;28;20128;-48
2024/03/01 04:55:37;;;;;;;19.52;9.20;;;;;;;-140.81;100.00;62400.31;5042403;28;20051;-49
2024/03/01 04:58:03;;;;;;;16.70;7.57;;;;;;;-140.81;100.00;62400.31;5058538;28;20041;-50
2024/03/01 05:00:29;;;;;;;19.10;8.30;;;;;;;-140.81;100.00;62400.31;5025650;28;20102;-49
2024/03/01 05:02:56;;;;;;;15.88;7.45;;;;;;;-140.81;100.00;62400.31;5026097;28;20041;-46
2024/03/01 05:05:24;;;;;;;19.90;8.45;;;;;;;-140.81;100.00;62400.31;5058973;28;20041;-50
2024/03/01 05:07:51;;;;;;;20.95;7.53;;;;;;;-140.81;100.00;62400.31;5025018;28;20416;-46
2024/03/01 05:10:22;;;;;;;18.30;8.13;;;;;;;-140.81;100.00;62400.31;5023848;28;20045;-46
2024/03/01 05:12:49;;;;;;;15.68;7.00;;;;;;;-140.81;100.00;62400.31;5026405;28;20041;-48
2024/03/01 05:15:15;;;;;;;17.25;8.70;;;;;;;-140.81;100.00;62400.31;5025892;28;20053;-49
2024/03/01 05:17:43;;;;;;;20.30;7.50;;;;;;;-140.81;100.00;62400.31;5025132;28;20041;-45
2024/03/01 05:20:14;;;;;;;19.25;7.55;;;;;;;-140.81;100.00;62400.31;5025028;28;20045;-52
2024/03/01 05:22:42;;;;;;;17.02;7.90;;;;;;;-140.81;100.00;62400.31;5009368;28;20041;-53
2024/03/01 05:25:15;;;;;;;16.25;8.43;;;;;;;-140.81;100.00;62400.31;5056961;28;20041;-47
2024/03/01 05:27:46;;;;;;;23.10;8.18;;;;;;;-140.81;100.00;62400.31;5026611;28;20049;-45
2024/03/01 05:30:17;;;;;;;16.58;7.90;;;;;;;-140.81;100.00;62400.31;5026776;28;20509;-50
2024/03/01 05:32:47;;;;;;;22.00;8.50;;;;;;;-140.81;100.00;62400.31;5042269;28;20132;-49
2024/03/01 05:35:15;;;;;;;23.02;10.88;;;;;;;-140.81;100.00;62400.31;5025932;28;20045;-46
2024/03/01 05:37:41;;;;;;;26.92;10.10;;;;;;;-140.81;100.00;62400.31;5025964;28;20132;-49
2024/03/01 05:40:12;;;;;;;20.38;9.52;;;;;;;-140.81;100.00;62400.31;5025757;28;20747;-44
2024/03/01 05:42:39;;;;;;;22.25;9.40;;;;;;;-140.81;100.00;62400.31;5056829;28;20045;-45
2024/03/01 05:45:08;;;;;;;18.30;9.48;;;;;;;-140.81;100.00;62400.31;5007898;28;20713;-47
2024/03/01 05:47:35;;;;;;;23.15;8.65;;;;;;;-140.81;100.00;62400.31;5025677;28;20466;-49
2024/03/01 05:50:05;;;;;;;22.10;8.82;;;;;;;-140.81;100.00;62400.31;5008596;28;20045;-48
2024/03/01 05:52:35;;;;;;;22.42;8.50;;;;;;;-140.81;100.00;62400.31;5025657;28;20128;-48
2024/03/01 05:55:03;;;;;;;17.63;9.02;;;;;;;-140.81;100.00;62400.31;5007471;28;20045;-51
2024/03/01 05:57:31;;;;;;;21.88;9.00;;;;;;;-140.81;100.00;62400.31;5026287;28;20037;-46
2024/03/01 05:59:57;;;;;;;25.38;9.57;;;;;;;-140.81;100.00;62400.31;5026389;28;20057;-50
2024/03/01 06:02:24;;;;;;;19.80;8.15;;;;;;;-140.81;100.00;62400.31;5025704;28;20041;-46
2024/03/01 06:04:50;;;;;;;25.38;10.93;;;;;;;-140.81;100.00;62400.31;5040991;28;20048;-53
2024/03/01 06:07:16;;;;;;;24.58;10.85;;;;;;;-140.81;100.00;62400.31;5008063;28;20045;-50
2024/03/01 06:09:43;;;;;;;16.67;8.68;;;;;;;-140.81;100.00;62400.31;5025585;28;20042;-47
2024/03/01 06:12:09;;;;;;;20.33;9.88;;;;;;;-140.81;100.00;62400.31;4992145;28;20499;-52
2024/03/01 06:14:35;;;;;;;31.08;10.55;;;;;;;-140.81;100.00;62400.31;5025546;28;20045;-50
2024/03/01 06:17:02;;;;;;;24.85;9.18;;;;;;;-140.81;100.00;62400.31;5007832;28;20036;-48
2024/03/01 06:19:28;;;;;;;18.70;9.55;;;;;;;-140.81;100.00;62400.31;5024371;28;20037;-49
2024/03/01 06:21:57;;;;;;;21.15;9.68;;;;;;;-140.81;100.00;62400.31;5024875;28;20045;-49
2024/03/01 06:24:23;;;;;;;20.77;9.27;;;;;;;-140.81;100.00;62400.31;5025725;28;20091;-49
2024/03/01 06:26:50;;;;;;;23.27;9.40;;;;;;;-140.81;100.00;62400.31;5024097;28;20529;-47
2024/03/01 06:29:16;;;;;;;18.33;9.02;;;;;;;-140.81;100.00;62400.31;5024430;28;20497;-53
2024/03/01 06:31:42;;;;;;;23.33;9.65;;;;;;;-140.81;100.00;62400.31;5025963;28;20048;-49
2024/03/01 06:34:08;;;;;;;22.33;10.23;;;;;;;-140.81;100.00;62400.31;5023755;28;20053;-51
2024/03/01 06:36:34;;;;;;;20.63;10.00;;;;;;;-140.81;100.00;62400.31;5025174;28;20033;-50
2024/03/01 06:39:01;;;;;;;27.80;10.48;;;;;;;-140.81;100.00;62400.31;5024841;28;20046;-52
2024/03/01 06:41:27;;;;;;;27.02;10.73;;;;;;;-140.81;100.00;62400.31;5024423;28;20045;-53
2024/03/01 06:43:53;;;;;;;26.50;10.07;;;;;;;-140.81;100.00;62400.31;4994273;28;20080;-51
2024/03/01 06:46:19;;;;;;;31.27;10.48;;;;;;;-140.81;100.00;62400.31;5025930;28;20390;-51
2024/03/01 06:48:45;;;;;;;22.58;10.82;;;;;;;-140.81;100.00;62400.31;5026003;28;20065;-50
2024/03/01 06:51:11;;;;;;;28.73;10.82;;;;;;;-140.81;100.00;62400.31;5007421;28;20118;-55
2024/03/01 06:53:37;;;;;;;20.40;10.50;;;;;;;-140.81;100.00;62400.31;5040665;28;20630;-48
2024/03/01 06:56:03;;;;;;;30.48;10.88;;;;;;;-140.81;100.00;62400.31;5023154;28;20056;-49
2024/03/01 06:58:29;;;;;;;27.02;10.77;;;;;;;-140.81;100.00;62400.31;5008644;28;20079;-52
2024/03/01 07:00:55;;;;;;;21.30;10.50;;;;;;;-140.81;100.00;62400.31;5024472;28;20080;-51
2024/03/01 07:03:21;;;;;;;27.02;11.48;;;;;;;-140.81;100.00;62400.31;5024817;28;20535;-55
2024/03/01 07:05:47;;;;;;;37.20;12.55;;;;;;;-140.81;100.00;62400.31;5028357;28;20048;-47
2024/03/01 07:08:13;;;;;;;26.15;11.18;;;;;;;-140.81;100.00;62400.31;4979985;28;20045;-50
2024/03/01 07:10:40;;;;;;;26.00;11.85;;;;;;;-140.81;100.00;62400.31;5029589;28;20048;-53
2024/03/01 07:13:06;;;;;;;24.30;10.50;;;;;;;-140.81;100.00;62400.31;5028696;28;20572;-48
2024/03/01 07:15:32;;;;;;;31.70;11.27;;;;;;;-140.81;100.00;62400.31;5027909;28;20128;-52
2024/03/01 07:17:59;;;;;;;30.33;11.85;;;;;;;-140.81;100.00;62400.31;5027418;28;20077;-51
2024/03/01 07:20:25;;;;;;;29.50;11.75;;;;;;;-140.81;100.00;62400.31;5003058;28;20050;-48
2024/03/01 07:22:51;;;;;;;27.08;11.80;;;;;;;-140.81;100.00;62400.31;5010891;28;20076;-48
2024/03/01 07:25:17;;;;;;;22.20;10.57;;;;;;;-140.81;100.00;62400.31;5002883;28;20526;-52
2024/03/01 07:27:44;;;;;;;18.67;9.32;;;;;;;-140.81;100.00;62400.31;5028908;28;20425;-49
2024/03/01 07:30:10;;;;;;;18.92;10.02;;;;;;;-140.81;100.00;62400.31;5061262;28;20039;-50
2024/03/01 07:32:37;;;;;;;25.30;10.95;;;;;;;-140.81;100.00;62400.31;4993807;28;20045;-51
2024/03/01 07:35:04;;;;;;;24.88;10.27;;;;;;;-140.81;100.00;62400.31;5027846;28;20537;-52
2024/03/01 07:37:31;;;;;;;20.58;10.25;;;;;;;-140.81;100.00;62400.31;5028362;28;20041;-51
2024/03/01 07:39:58;;;;;;;25.35;9.93;;;;;;;-140.81;100.00;62400.31;5027582;28;20049;-52
2024/03/01 07:42:25;;;;;;;24.55;9.93;;;;;;;-140.81;100.00;62400.31;5022885;28;20049;-49
2024/03/01 07:44:51;;;;;;;24.65;9.75;;;;;;;-140.81;100.00;62400.31;5009200;28;20393;-52
2024/03/01 07:47:17;;;;;;;23.58;9.95;;;;;;;-140.81;100.00;62400.31;5022125;28;20065;-49
2024/03/01 07:49:43;;;;;;;19.95;10.05;;;;;;;-140.81;100.00;62400.31;5059689;28;20056;-46
2024/03/01 07:52:09;;;;;;;23.52;9.10;;;;;;;-140.81;100.00;62400.31;5027352;28;20037;-52
2024/03/01 07:54:35;;;;;;;19.80;8.90;;;;;;;-140.81;100.00;62400.31;5026368;28;20052;-53
2024/03/01 07:57:01;;;;;;;24.70;10.50;;;;;;;-140.81;100.00;62400.31;5025654;28;20108;-54
2024/03/01 07:59:27;;;;;;;18.55;9.25;;;;;;;-140.81;100.00;62400.31;5025236;28;20516;-53
2024/03/01 08:01:53;;;;;;;20.63;9.25;;;;;;;-140.81;100.00;62400.31;5028171;28;20472;-61
2024/03/01 08:04:19;;;;;;;22.90;10.48;;;;;;;-140.81;100.00;62400.31;5028468;28;20482;-47
2024/03/01 08:06:45;;;;;;;20.27;9.38;;;;;;;-140.81;100.00;62400.31;5025857;28;20169;-54
2024/03/01 08:09:19;;;;;;;20.38;10.63;;;;;;;-140.81;100.00;62400.31;5028187;28;20045;-50
2024/03/01 08:11:46;;;;;;;21.83;10.05;;;;;;;-140.81;100.00;62400.31;5027779;28;20045;-50
2024/03/01 08:14:32;;;;;;;22.45;10.23;;;;;;;-140.81;100.00;62400.31;5010275;28;20049;-53
2024/03/01 08:16:58;;;;;;;24.92;11.77;;;;;;;-140.81;100.00;62400.31;5025887;28;20095;-52
2024/03/01 08:19:36;;;;;;;23.45;11.10;;;;;;;-140.81;100.00;62400.31;5026479;28;20041;-52
2024/03/01 08:22:09;;;;;;;23.52;10.77;;;;;;;-140.81;100.00;62400.31;5027851;28;20404;-52
2024/03/01 08:24:37;;;;;;;20.15;10.20;;;;;;;-140.81;100.00;62400.31;5027847;28;20055;-48
2024/03/01 08:27:06;;;;;;;24.92;10.95;;;;;;;-140.81;100.00;62400.31;5025650;28;20116;-50
2024/03/01 08:29:33;;;;;;;26.83;11.70;;;;;;;-140.81;100.00;62400.31;5022964;28;20402;-50
2024/03/01 08:31:59;;;;;;;27.38;11.27;;;;;;;-140.81;100.00;62400.31;5006801;28;20807;-47
2024/03/01 08:34:30;;;;;;;27.67;11.40;;;;;;;-140.81;100.00;62400.31;4990466;28;20060;-50
2024/03/01 08:36:55;;;;;;;25.08;12.40;;;;;;;-140.81;100.00;62400.31;5023729;28;20070;-52
2024/03/01 08:39:23;;;;;;;22.60;11.43;;;;;;;-140.81;100.00;62400.31;5038786;28;20041;-54
2024/03/01 08:41:51;;;;;;;25.50;12.13;;;;;;;-140.81;100.00;62400.31;5009888;28;20175;-55
2024/03/01 08:44:38;;;;;;;24.40;11.90;;;;;;;-140.81;100.00;62400.31;5042504;28;20044;-51
2024/03/01 08:47:06;;;;;;;24.83;11.45;;;;;;;-140.81;100.00;62400.31;5027938;28;20041;-51
2024/03/01 08:49:44;;;;;;;26.00;11.02;;;;;;;-140.81;100.00;62400.31;5009474;28;20029;-51
2024/03/01 08:52:38;;;;;;;29.00;11.40;;;;;;;-140.81;100.00;62400.31;5026352;28;20048;-52
2024/03/01 08:55:10;;;;;;;20.95;10.65;;;;;;;-140.81;100.00;62400.31;5027492;28;20517;-52
2024/03/01 08:57:37;;;;;;;26.33;12.50;;;;;;;-140.81;100.00;62400.31;5025365;28;20045;-54
2024/03/01 09:00:05;;;;;;;25.48;11.80;;;;;;;-140.81;100.00;62400.31;5008721;28;20433;-53
2024/03/01 09:02:48;;;;;;;29.52;12.95;;;;;;;-140.81;100.00;62400.31;5009654;28;20042;-53
2024/03/01 09:05:15;;;;;;;21.05;10.90;;;;;;;-140.81;100.00;62400.31;5025638;28;20060;-52
2024/03/01 09:07:43;;;;;;;21.20;11.35;;;;;;;-140.81;100.00;62400.31;5025130;28;20159;-53
2024/03/01 09:10:18;;;;;;;27.00;11.07;;;;;;;-140.81;100.00;62400.31;5026388;28;20037;-54
2024/03/01 09:12:47;;;;;;;20.45;11.15;;;;;;;-140.81;100.00;62400.31;5026112;28;20045;-51
2024/03/01 09:15:15;;;;;;;24.23;10.63;;;;;;;-140.81;100.00;62400.31;5025474;28;20069;-50
2024/03/01 09:17:41;;;;;;;28.02;12.07;;;;;;;-140.81;100.00;62400.31;5009106;28;20041;-55
2024/03/01 09:20:37;;;;;;;21.70;11.30;;;;;;;-140.81;100.00;62400.31;4995684;28;20045;-50
2024/03/01 09:23:06;;;;;;;27.88;12.23;;;;;;;-140.81;100.00;62400.31;5020156;28;20052;-50
2024/03/01 09:25:48;;;;;;;20.88;11.45;;;;;;;-140.81;100.00;62400.31;4976168;28;20049;-51
2024/03/01 09:28:15;;;;;;;23.30;11.30;;;;;;;-140.81;100.00;62400.31;5007284;28;20048;-52
2024/03/01 09:30:45;;;;;;;27.27;11.23;;;;;;;-140.81;100.00;62400.31;5005715;28;20220;-53
2024/03/01 09:33:21;;;;;;;;;;;;;;;-140.81;100.00;62400.31;5000117;28;20048;-52
2024/03/01 09:35:50;;;;;;;27.75;11.30;;;;;;;-140.81;100.00;62400.31;5047591;28;20075;-50
2024/03/01 09:38:17;;;;;;;21.10;12.05;;;;;;;-140.81;100.00;62400.31;4999812;28;20056;-51
2024/03/01 09:40:49;;;;;;;23.80;11.50;;;;;;;-140.81;100.00;62400.31;5023675;28;20037;-53
2024/03/01 09:44:01;;;;;;;23.30;11.95;;;;;;;-140.81;100.00;62400.31;5024475;28;20091;-50
2024/03/01 09:46:53;;;;;;;28.92;12.95;;;;;;;-140.81;100.00;62400.31;5024596;28;20042;-52
2024/03/01 09:49:55;;;;;;;23.67;12.55;;;;;;;-140.81;100.00;62400.31;5016503;28;20429;-51
2024/03/01 09:52:27;;;;;;;33.35;13.95;;;;;;;-140.81;100.00;62400.31;5021473;28;20071;-50
2024/03/01 09:55:33;;;;;;;25.95;13.30;;;;;;;-140.81;100.00;62400.31;5025659;28;20037;-56
2024/03/01 09:58:24;;;;;;;26.13;13.23;;;;;;;-140.81;100.00;62400.31;5023543;28;20051;-51
2024/03/01 10:00:59;;;;;;;28.45;13.30;;;;;;;-140.81;100.00;62400.31;5021396;28;20045;-50
2024/03/01 10:03:36;;;;;;;28.77;13.27;;;;;;;-140.81;100.00;62400.31;5023501;28;20044;-52
2024/03/01 10:06:02;;;;;;;25.35;12.95;;;;;;;-140.81;100.00;62400.31;5006969;28;20145;-50
2024/03/01 10:08:37;;;;;;;30.45;14.15;;;;;;;-140.81;100.00;62400.31;5022898;28;20045;-47
2024/03/01 10:11:21;;;;;;;27.83;13.60;;;;;;;-140.81;100.00;62400.31;5023025;28;20045;-49
2024/03/01 10:14:14;;;;;;;27.50;13.45;;;;;;;-140.81;100.00;62400.31;5007378;28;20048;-47
2024/03/01 10:17:05;;;;;;;28.27;13.35;;;;;;;-140.81;100.00;62400.31;5024175;28;20045;-52
2024/03/01 10:19:40;;;;;;;26.77;13.63;;;;;;;-140.81;100.00;62400.31;5025415;28;20049;-50
2024/03/01 10:22:22;;;;;;;32.60;14.93;;;;;;;-140.81;100.00;62400.31;5023980;28;20136;-48
2024/03/01 10:25:19;;;;;;;29.60;14.43;;;;;;;-140.81;100.00;62400.31;5025675;28;20124;-56
2024/03/01 10:28:01;;;;;;;27.40;14.05;;;;;;;-140.81;100.00;62400.31;5025348;28;20041;-52
2024/03/01 10:30:31;;;;;;;33.85;14.23;;;;;;;-140.81;100.00;62400.31;5023972;28;20044;-53
2024/03/01 10:33:18;;;;;;;32.70;14.00;;;;;;;-140.81;100.00;62400.31;5007175;28;20037;-51
2024/03/01 10:36:00;;;;;;;31.30;14.88;;;;;;;-140.81;100.00;62400.31;5023844;28;20576;-52
2024/03/01 10:38:31;;;;;;;24.80;14.20;;;;;;;-140.81;100.00;62400.31;5023703;28;20043;-51
2024/03/01 10:41:15;;;;;;;29.02;15.77;;;;;;;-140.81;100.00;62400.31;5008721;28;20053;-49
2024/03/01 10:44:04;;;;;;;30.85;14.82;;;;;;;-140.81;100.00;62400.31;5021809;28;20057;-55
2024/03/01 10:46:40;;;;;;;33.30;14.82;;;;;;;-140.81;100.00;62400.31;5009727;28;20156;-52
2024/03/01 10:49:15;;;;;;;27.23;13.48;;;;;;;-140.81;100.00;62400.31;5026281;28;20743;-53
2024/03/01 10:51:58;;;;;;;28.88;14.05;;;;;;;-140.81;100.00;62400.31;5029176;28;20041;-55
2024/03/01 10:54:27;;;;;;;26.30;13.95;;;;;;;-140.81;100.00;62400.31;4995929;28;20045;-55
2024/03/01 10:56:54;;;;;;;29.00;14.65;;;;;;;-140.81;100.00;62400.31;5026251;28;20049;-53
2024/03/01 10:59:47;;;;;;;31.88;14.48;;;;;;;-140.81;100.00;62400.31;5028121;28;20084;-53
2024/03/01 11:02:20;;;;;;;38.78;16.13;;;;;;;-140.81;100.00;62400.31;5026557;28;20052;-52
2024/03/01 11:05:02;;;;;;;29.17;14.23;;;;;;;-140.81;100.00;62400.31;4989542;28;20204;-52
2024/03/01 11:07:47;;;;;;;28.35;13.55;;;;;;;-140.81;100.00;62400.31;5024474;28;20506;-53
2024/03/01 11:10:22;;;;;;;29.52;14.95;;;;;;;-140.81;100.00;62400.31;5009338;28;20042;-54